sensor_id;sensor_type;location;lat;lon;timestamp;temperature;humidity
46037;DHT22;31769;49.304;8.428;2023-04-15T00:01:37;7.10;99.90
46037;DHT22;31769;49.304;8.428;2023-04-15T00:04:38;7.20;99.90
46037;DHT22;31769;49.304;8.428;2023-04-15T00:07:39;7.20;99.90
46037;DHT22;31769;49.304;8.428;2023-04-15T00:10:39;7.10;99.90
46037;DHT22;31769;49.304;8.428;2023-04-15T00:13:43;7.10;99.90
46037;DHT22;31769;49.304;8.428;2023-04-15T00:16:45;7.00;99.90
46037;DHT22;31769;49.304;8.428;2023-04-15T00:19:45;7.00;99.90
46037;DHT22;31769;49.304;8.428;2023-04-15T00:22:46;6.90;99.90
46037;DHT22;31769;49.304;8.428;2023-04-15T00:25:47;6.90;99.90
46037;DHT22;31769;49.304;8.428;2023-04-15T00:28:47;7.00;99.90
46037;DHT22;31769;49.304;8.428;2023-04-15T00:31:48;6.90;99.90
46037;DHT22;31769;49.304;8.428;2023-04-15T00:34:49;6.90;99.90
46037;DHT22;31769;49.304;8.428;2023-04-15T00:37:50;7.00;99.90
46037;DHT22;31769;49.304;8.428;2023-04-15T00:40:51;7.00;99.90
46037;DHT22;31769;49.304;8.428;2023-04-15T00:43:52;6.90;99.90
46037;DHT22;31769;49.304;8.428;2023-04-15T00:46:53;6.90;99.90
46037;DHT22;31769;49.304;8.428;2023-04-15T00:49:54;6.90;99.90
46037;DHT22;31769;49.304;8.428;2023-04-15T00:52:55;6.70;99.90
46037;DHT22;31769;49.304;8.428;2023-04-15T00:55:56;6.60;99.90
46037;DHT22;31769;49.304;8.428;2023-04-15T00:58:58;6.50;99.90
46037;DHT22;31769;49.304;8.428;2023-04-15T01:01:59;6.40;99.90
46037;DHT22;31769;49.304;8.428;2023-04-15T01:04:59;6.40;99.90
46037;DHT22;31769;49.304;8.428;2023-04-15T01:08:01;6.50;99.90
46037;DHT22;31769;49.304;8.428;2023-04-15T01:11:02;6.50;99.90
46037;DHT22;31769;49.304;8.428;2023-04-15T01:14:03;6.40;99.90
46037;DHT22;31769;49.304;8.428;2023-04-15T01:17:04;6.30;99.90
46037;DHT22;31769;49.304;8.428;2023-04-15T01:20:07;6.20;99.90
46037;DHT22;31769;49.304;8.428;2023-04-15T01:23:11;6.10;99.90
46037;DHT22;31769;49.304;8.428;2023-04-15T01:26:12;6.10;99.90
46037;DHT22;31769;49.304;8.428;2023-04-15T01:29:13;6.10;99.90
46037;DHT22;31769;49.304;8.428;2023-04-15T01:32:15;6.10;99.90
46037;DHT22;31769;49.304;8.428;2023-04-15T01:35:15;6.10;99.90
46037;DHT22;31769;49.304;8.428;2023-04-15T01:38:18;6.20;99.90
46037;DHT22;31769;49.304;8.428;2023-04-15T01:41:28;6.20;99.90
46037;DHT22;31769;49.304;8.428;2023-04-15T01:44:28;6.20;99.90
46037;DHT22;31769;49.304;8.428;2023-04-15T01:47:29;6.20;99.90
46037;DHT22;31769;49.304;8.428;2023-04-15T01:50:30;6.10;99.90
46037;DHT22;31769;49.304;8.428;2023-04-15T01:53:30;6.20;99.90
46037;DHT22;31769;49.304;8.428;2023-04-15T01:56:31;6.10;99.90
46037;DHT22;31769;49.304;8.428;2023-04-15T01:59:32;6.20;99.90
46037;DHT22;31769;49.304;8.428;2023-04-15T02:02:33;6.10;99.90
46037;DHT22;31769;49.304;8.428;2023-04-15T02:05:34;6.10;99.90
46037;DHT22;31769;49.304;8.428;2023-04-15T02:08:37;6.10;99.90
46037;DHT22;31769;49.304;8.428;2023-04-15T02:11:41;6.20;99.90
46037;DHT22;31769;49.304;8.428;2023-04-15T02:14:42;6.20;99.90
46037;DHT22;31769;49.304;8.428;2023-04-15T02:17:42;6.10;99.90
46037;DHT22;31769;49.304;8.428;2023-04-15T02:20:45;6.20;99.90
46037;DHT22;31769;49.304;8.428;2023-04-15T02:23:46;6.10;99.90
46037;DHT22;31769;49.304;8.428;2023-04-15T02:26:47;6.20;99.90
46037;DHT22;31769;49.304;8.428;2023-04-15T02:29:49;6.20;99.90
46037;DHT22;31769;49.304;8.428;2023-04-15T02:32:52;6.20;99.90
46037;DHT22;31769;49.304;8.428;2023-04-15T02:35:53;6.10;99.90
46037;DHT22;31769;49.304;8.428;2023-04-15T02:38:54;6.20;99.90
46037;DHT22;31769;49.304;8.428;2023-04-15T02:41:55;6.20;99.90
46037;DHT22;31769;49.304;8.428;2023-04-15T02:44:59;6.10;99.90
46037;DHT22;31769;49.304;8.428;2023-04-15T02:48:04;6.10;99.90
46037;DHT22;31769;49.304;8.428;2023-04-15T02:51:16;6.10;99.90
46037;DHT22;31769;49.304;8.428;2023-04-15T02:54:19;6.10;99.90
46037;DHT22;31769;49.304;8.428;2023-04-15T02:57:22;6.10;99.90
46037;DHT22;31769;49.304;8.428;2023-04-15T03:00:23;6.00;99.90
46037;DHT22;31769;49.304;8.428;2023-04-15T03:03:24;6.00;99.90
46037;DHT22;31769;49.304;8.428;2023-04-15T03:06:27;6.00;99.90
46037;DHT22;31769;49.304;8.428;2023-04-15T03:09:28;6.00;99.90
46037;DHT22;31769;49.304;8.428;2023-04-15T03:12:29;5.90;99.90
46037;DHT22;31769;49.304;8.428;2023-04-15T03:15:32;5.90;99.90
46037;DHT22;31769;49.304;8.428;2023-04-15T03:18:34;5.90;99.90
46037;DHT22;31769;49.304;8.428;2023-04-15T03:21:36;5.90;99.90
46037;DHT22;31769;49.304;8.428;2023-04-15T03:24:37;5.90;99.90
46037;DHT22;31769;49.304;8.428;2023-04-15T03:27:38;5.80;99.90
46037;DHT22;31769;49.304;8.428;2023-04-15T03:30:39;5.90;99.90
46037;DHT22;31769;49.304;8.428;2023-04-15T03:33:40;5.90;99.90
46037;DHT22;31769;49.304;8.428;2023-04-15T03:36:40;5.80;99.90
46037;DHT22;31769;49.304;8.428;2023-04-15T03:39:41;5.80;99.90
46037;DHT22;31769;49.304;8.428;2023-04-15T03:42:42;5.80;99.90
46037;DHT22;31769;49.304;8.428;2023-04-15T03:45:42;5.70;99.90
46037;DHT22;31769;49.304;8.428;2023-04-15T03:48:43;5.80;99.90
46037;DHT22;31769;49.304;8.428;2023-04-15T03:51:44;5.70;99.90
46037;DHT22;31769;49.304;8.428;2023-04-15T03:54:44;5.60;99.90
46037;DHT22;31769;49.304;8.428;2023-04-15T03:57:45;5.30;99.90
46037;DHT22;31769;49.304;8.428;2023-04-15T04:00:46;4.90;99.90
46037;DHT22;31769;49.304;8.428;2023-04-15T04:03:47;4.70;99.90
46037;DHT22;31769;49.304;8.428;2023-04-15T04:06:48;4.60;99.90
46037;DHT22;31769;49.304;8.428;2023-04-15T04:09:48;4.50;99.90
46037;DHT22;31769;49.304;8.428;2023-04-15T04:12:49;4.40;99.90
46037;DHT22;31769;49.304;8.428;2023-04-15T04:15:50;4.50;99.90
46037;DHT22;31769;49.304;8.428;2023-04-15T04:18:51;4.60;99.90
46037;DHT22;31769;49.304;8.428;2023-04-15T04:21:51;4.70;99.90
46037;DHT22;31769;49.304;8.428;2023-04-15T04:24:52;4.70;99.90
46037;DHT22;31769;49.304;8.428;2023-04-15T04:27:53;4.80;99.90
46037;DHT22;31769;49.304;8.428;2023-04-15T04:30:53;4.90;99.90
46037;DHT22;31769;49.304;8.428;2023-04-15T04:33:54;4.90;99.90
46037;DHT22;31769;49.304;8.428;2023-04-15T04:36:55;5.10;99.90
46037;DHT22;31769;49.304;8.428;2023-04-15T04:39:56;5.10;99.90
46037;DHT22;31769;49.304;8.428;2023-04-15T04:42:56;5.10;99.90
46037;DHT22;31769;49.304;8.428;2023-04-15T04:45:57;5.20;99.90
46037;DHT22;31769;49.304;8.428;2023-04-15T04:48:57;5.10;99.90
46037;DHT22;31769;49.304;8.428;2023-04-15T04:51:58;5.20;99.90
46037;DHT22;31769;49.304;8.428;2023-04-15T04:54:59;5.20;99.90
46037;DHT22;31769;49.304;8.428;2023-04-15T04:58:00;5.20;99.90
46037;DHT22;31769;49.304;8.428;2023-04-15T05:01:00;5.10;99.90
46037;DHT22;31769;49.304;8.428;2023-04-15T05:04:02;5.20;99.90
46037;DHT22;31769;49.304;8.428;2023-04-15T05:07:04;5.20;99.90
46037;DHT22;31769;49.304;8.428;2023-04-15T05:10:05;5.20;99.90
46037;DHT22;31769;49.304;8.428;2023-04-15T05:13:06;5.20;99.90
46037;DHT22;31769;49.304;8.428;2023-04-15T05:16:07;5.20;99.90
46037;DHT22;31769;49.304;8.428;2023-04-15T05:19:08;5.30;99.90
46037;DHT22;31769;49.304;8.428;2023-04-15T05:22:09;5.30;99.90
46037;DHT22;31769;49.304;8.428;2023-04-15T05:25:10;5.30;99.90
46037;DHT22;31769;49.304;8.428;2023-04-15T05:28:12;5.30;99.90
46037;DHT22;31769;49.304;8.428;2023-04-15T05:31:13;5.30;99.90
46037;DHT22;31769;49.304;8.428;2023-04-15T05:34:14;5.30;99.90
46037;DHT22;31769;49.304;8.428;2023-04-15T05:37:16;5.40;99.90
46037;DHT22;31769;49.304;8.428;2023-04-15T05:40:16;5.60;99.90
46037;DHT22;31769;49.304;8.428;2023-04-15T05:43:17;5.80;99.90
46037;DHT22;31769;49.304;8.428;2023-04-15T05:46:18;5.90;99.90
46037;DHT22;31769;49.304;8.428;2023-04-15T05:49:19;6.00;99.90
46037;DHT22;31769;49.304;8.428;2023-04-15T05:52:19;6.10;99.90
46037;DHT22;31769;49.304;8.428;2023-04-15T05:55:20;6.20;99.90
46037;DHT22;31769;49.304;8.428;2023-04-15T05:58:21;6.30;99.90
46037;DHT22;31769;49.304;8.428;2023-04-15T06:01:22;6.40;99.90
46037;DHT22;31769;49.304;8.428;2023-04-15T06:04:22;6.50;99.90
46037;DHT22;31769;49.304;8.428;2023-04-15T06:07:23;6.60;99.90
46037;DHT22;31769;49.304;8.428;2023-04-15T06:10:24;6.70;99.90
46037;DHT22;31769;49.304;8.428;2023-04-15T06:13:25;6.90;99.90
46037;DHT22;31769;49.304;8.428;2023-04-15T06:16:26;7.00;99.90
46037;DHT22;31769;49.304;8.428;2023-04-15T06:19:27;7.10;99.90
46037;DHT22;31769;49.304;8.428;2023-04-15T06:22:27;7.30;99.90
46037;DHT22;31769;49.304;8.428;2023-04-15T06:25:28;7.40;99.90
46037;DHT22;31769;49.304;8.428;2023-04-15T06:28:29;7.60;99.90
46037;DHT22;31769;49.304;8.428;2023-04-15T06:31:29;7.90;99.90
46037;DHT22;31769;49.304;8.428;2023-04-15T06:34:30;8.20;99.90
46037;DHT22;31769;49.304;8.428;2023-04-15T06:37:31;8.40;99.90
46037;DHT22;31769;49.304;8.428;2023-04-15T06:40:32;8.80;99.90
46037;DHT22;31769;49.304;8.428;2023-04-15T06:43:33;9.10;99.90
46037;DHT22;31769;49.304;8.428;2023-04-15T06:46:34;9.30;99.90
46037;DHT22;31769;49.304;8.428;2023-04-15T06:49:34;9.60;99.90
46037;DHT22;31769;49.304;8.428;2023-04-15T06:52:35;9.80;99.90
46037;DHT22;31769;49.304;8.428;2023-04-15T06:55:36;9.90;99.90
46037;DHT22;31769;49.304;8.428;2023-04-15T06:58:36;10.00;99.90
46037;DHT22;31769;49.304;8.428;2023-04-15T07:01:37;10.30;99.90
46037;DHT22;31769;49.304;8.428;2023-04-15T07:04:38;10.40;99.90
46037;DHT22;31769;49.304;8.428;2023-04-15T07:07:39;10.70;99.90
46037;DHT22;31769;49.304;8.428;2023-04-15T07:10:40;10.90;99.90
46037;DHT22;31769;49.304;8.428;2023-04-15T07:13:41;11.00;99.90
46037;DHT22;31769;49.304;8.428;2023-04-15T07:16:42;11.20;99.90
46037;DHT22;31769;49.304;8.428;2023-04-15T07:19:42;11.40;99.90
46037;DHT22;31769;49.304;8.428;2023-04-15T07:22:43;11.60;99.90
46037;DHT22;31769;49.304;8.428;2023-04-15T07:25:44;11.80;99.90
46037;DHT22;31769;49.304;8.428;2023-04-15T07:28:44;12.00;99.90
46037;DHT22;31769;49.304;8.428;2023-04-15T07:31:46;12.20;99.90
46037;DHT22;31769;49.304;8.428;2023-04-15T07:34:47;12.50;99.90
46037;DHT22;31769;49.304;8.428;2023-04-15T07:37:47;12.70;99.90
46037;DHT22;31769;49.304;8.428;2023-04-15T07:40:48;12.90;99.90
46037;DHT22;31769;49.304;8.428;2023-04-15T07:43:49;13.00;99.90
46037;DHT22;31769;49.304;8.428;2023-04-15T07:46:50;13.10;99.90
46037;DHT22;31769;49.304;8.428;2023-04-15T07:49:50;13.10;99.90
46037;DHT22;31769;49.304;8.428;2023-04-15T07:52:51;13.00;99.90
46037;DHT22;31769;49.304;8.428;2023-04-15T07:55:52;12.90;99.90
46037;DHT22;31769;49.304;8.428;2023-04-15T07:58:53;13.00;99.90
46037;DHT22;31769;49.304;8.428;2023-04-15T08:01:54;13.30;99.90
46037;DHT22;31769;49.304;8.428;2023-04-15T08:04:54;13.50;99.90
46037;DHT22;31769;49.304;8.428;2023-04-15T08:07:55;13.80;99.90
46037;DHT22;31769;49.304;8.428;2023-04-15T08:10:57;14.00;99.90
46037;DHT22;31769;49.304;8.428;2023-04-15T08:13:58;14.20;99.90
46037;DHT22;31769;49.304;8.428;2023-04-15T08:16:59;14.30;99.90
46037;DHT22;31769;49.304;8.428;2023-04-15T08:19:59;14.30;99.90
46037;DHT22;31769;49.304;8.428;2023-04-15T08:23:00;14.20;99.90
46037;DHT22;31769;49.304;8.428;2023-04-15T08:26:01;14.40;99.90
46037;DHT22;31769;49.304;8.428;2023-04-15T08:29:02;14.70;99.90
46037;DHT22;31769;49.304;8.428;2023-04-15T08:32:03;14.90;99.90
46037;DHT22;31769;49.304;8.428;2023-04-15T08:35:04;14.90;99.90
46037;DHT22;31769;49.304;8.428;2023-04-15T08:38:04;14.90;99.90
46037;DHT22;31769;49.304;8.428;2023-04-15T08:41:23;14.90;99.90
46037;DHT22;31769;49.304;8.428;2023-04-15T08:44:23;15.10;99.90
46037;DHT22;31769;49.304;8.428;2023-04-15T08:47:29;15.40;99.90
46037;DHT22;31769;49.304;8.428;2023-04-15T08:50:31;15.40;99.90
46037;DHT22;31769;49.304;8.428;2023-04-15T08:53:32;15.60;99.90
46037;DHT22;31769;49.304;8.428;2023-04-15T08:56:33;15.70;99.90
46037;DHT22;31769;49.304;8.428;2023-04-15T08:59:34;15.80;99.90
46037;DHT22;31769;49.304;8.428;2023-04-15T09:02:35;15.50;99.90
46037;DHT22;31769;49.304;8.428;2023-04-15T09:05:37;15.50;99.90
46037;DHT22;31769;49.304;8.428;2023-04-15T09:08:37;15.50;99.90
46037;DHT22;31769;49.304;8.428;2023-04-15T09:11:38;15.40;99.90
46037;DHT22;31769;49.304;8.428;2023-04-15T09:14:39;15.20;99.90
46037;DHT22;31769;49.304;8.428;2023-04-15T09:17:44;15.40;99.90
46037;DHT22;31769;49.304;8.428;2023-04-15T09:20:45;15.50;99.90
46037;DHT22;31769;49.304;8.428;2023-04-15T09:23:59;15.60;99.90
46037;DHT22;31769;49.304;8.428;2023-04-15T09:27:00;15.80;99.90
46037;DHT22;31769;49.304;8.428;2023-04-15T09:30:01;15.80;99.90
46037;DHT22;31769;49.304;8.428;2023-04-15T09:33:07;15.90;99.90
46037;DHT22;31769;49.304;8.428;2023-04-15T09:36:10;16.10;99.30
46037;DHT22;31769;49.304;8.428;2023-04-15T09:39:11;16.50;98.00
46037;DHT22;31769;49.304;8.428;2023-04-15T09:42:11;16.70;97.40
46037;DHT22;31769;49.304;8.428;2023-04-15T09:45:12;17.00;96.40
46037;DHT22;31769;49.304;8.428;2023-04-15T09:48:23;17.10;95.10
46037;DHT22;31769;49.304;8.428;2023-04-15T09:51:34;17.40;94.70
46037;DHT22;31769;49.304;8.428;2023-04-15T09:54:36;17.60;93.90
46037;DHT22;31769;49.304;8.428;2023-04-15T09:57:37;17.80;93.00
46037;DHT22;31769;49.304;8.428;2023-04-15T10:00:38;17.70;93.00
46037;DHT22;31769;49.304;8.428;2023-04-15T10:03:40;17.70;92.60
46037;DHT22;31769;49.304;8.428;2023-04-15T10:06:42;17.50;92.50
46037;DHT22;31769;49.304;8.428;2023-04-15T10:09:43;17.30;92.50
46037;DHT22;31769;49.304;8.428;2023-04-15T10:12:45;17.30;92.20
46037;DHT22;31769;49.304;8.428;2023-04-15T10:16:04;17.20;92.40
46037;DHT22;31769;49.304;8.428;2023-04-15T10:19:06;17.10;92.60
46037;DHT22;31769;49.304;8.428;2023-04-15T10:22:08;17.20;92.60
46037;DHT22;31769;49.304;8.428;2023-04-15T10:25:09;17.30;92.30
46037;DHT22;31769;49.304;8.428;2023-04-15T10:28:11;17.40;92.20
46037;DHT22;31769;49.304;8.428;2023-04-15T10:31:13;17.50;91.80
46037;DHT22;31769;49.304;8.428;2023-04-15T10:34:15;17.50;92.10
46037;DHT22;31769;49.304;8.428;2023-04-15T10:37:21;17.50;92.00
46037;DHT22;31769;49.304;8.428;2023-04-15T10:40:27;17.70;91.10
46037;DHT22;31769;49.304;8.428;2023-04-15T10:43:28;17.90;90.30
46037;DHT22;31769;49.304;8.428;2023-04-15T10:46:43;18.00;89.90
46037;DHT22;31769;49.304;8.428;2023-04-15T10:49:56;18.00;89.90
46037;DHT22;31769;49.304;8.428;2023-04-15T10:52:58;18.30;90.10
46037;DHT22;31769;49.304;8.428;2023-04-15T10:55:59;18.40;89.60
46037;DHT22;31769;49.304;8.428;2023-04-15T10:59:00;18.60;88.50
46037;DHT22;31769;49.304;8.428;2023-04-15T11:05:03;19.10;87.70
46037;DHT22;31769;49.304;8.428;2023-04-15T11:08:03;19.10;84.50
46037;DHT22;31769;49.304;8.428;2023-04-15T11:11:04;19.10;84.70
46037;DHT22;31769;49.304;8.428;2023-04-15T11:14:05;19.30;83.10
46037;DHT22;31769;49.304;8.428;2023-04-15T11:17:14;19.30;82.70
46037;DHT22;31769;49.304;8.428;2023-04-15T11:20:26;19.50;81.50
46037;DHT22;31769;49.304;8.428;2023-04-15T11:23:32;19.70;80.50
46037;DHT22;31769;49.304;8.428;2023-04-15T11:26:33;19.60;79.90
46037;DHT22;31769;49.304;8.428;2023-04-15T11:29:34;19.60;78.20
46037;DHT22;31769;49.304;8.428;2023-04-15T11:32:35;19.40;75.40
46037;DHT22;31769;49.304;8.428;2023-04-15T11:35:36;19.40;69.70
46037;DHT22;31769;49.304;8.428;2023-04-15T11:38:37;19.80;71.00
46037;DHT22;31769;49.304;8.428;2023-04-15T11:41:42;20.00;71.00
46037;DHT22;31769;49.304;8.428;2023-04-15T11:44:42;20.00;70.50
46037;DHT22;31769;49.304;8.428;2023-04-15T11:47:43;20.20;69.30
46037;DHT22;31769;49.304;8.428;2023-04-15T11:50:44;20.70;69.80
46037;DHT22;31769;49.304;8.428;2023-04-15T11:53:49;21.00;69.70
46037;DHT22;31769;49.304;8.428;2023-04-15T11:56:51;21.10;67.90
46037;DHT22;31769;49.304;8.428;2023-04-15T11:59:54;21.00;67.00
46037;DHT22;31769;49.304;8.428;2023-04-15T12:03:15;21.00;64.80
46037;DHT22;31769;49.304;8.428;2023-04-15T12:06:24;20.80;64.20
46037;DHT22;31769;49.304;8.428;2023-04-15T12:09:27;20.50;65.40
46037;DHT22;31769;49.304;8.428;2023-04-15T12:12:28;20.10;65.80
46037;DHT22;31769;49.304;8.428;2023-04-15T12:15:30;19.70;66.30
46037;DHT22;31769;49.304;8.428;2023-04-15T12:18:31;19.40;66.60
46037;DHT22;31769;49.304;8.428;2023-04-15T12:21:37;19.50;67.50
46037;DHT22;31769;49.304;8.428;2023-04-15T12:24:38;19.30;69.00
46037;DHT22;31769;49.304;8.428;2023-04-15T12:27:39;19.10;69.10
46037;DHT22;31769;49.304;8.428;2023-04-15T12:30:49;18.90;70.20
46037;DHT22;31769;49.304;8.428;2023-04-15T12:33:57;19.00;69.40
46037;DHT22;31769;49.304;8.428;2023-04-15T12:36:59;18.80;69.70
46037;DHT22;31769;49.304;8.428;2023-04-15T12:40:00;19.40;69.50
46037;DHT22;31769;49.304;8.428;2023-04-15T12:43:01;19.90;67.90
46037;DHT22;31769;49.304;8.428;2023-04-15T12:46:02;19.30;67.60
46037;DHT22;31769;49.304;8.428;2023-04-15T12:49:04;19.10;68.90
46037;DHT22;31769;49.304;8.428;2023-04-15T12:52:05;18.70;69.60
46037;DHT22;31769;49.304;8.428;2023-04-15T12:55:06;18.00;69.60
46037;DHT22;31769;49.304;8.428;2023-04-15T12:58:07;17.60;71.50
46037;DHT22;31769;49.304;8.428;2023-04-15T13:01:08;17.40;71.50
46037;DHT22;31769;49.304;8.428;2023-04-15T13:04:10;16.90;71.60
46037;DHT22;31769;49.304;8.428;2023-04-15T13:07:10;16.70;72.90
46037;DHT22;31769;49.304;8.428;2023-04-15T13:10:13;16.40;73.30
46037;DHT22;31769;49.304;8.428;2023-04-15T13:13:14;16.30;73.00
46037;DHT22;31769;49.304;8.428;2023-04-15T13:16:15;16.20;73.20
46037;DHT22;31769;49.304;8.428;2023-04-15T13:19:16;16.00;74.30
46037;DHT22;31769;49.304;8.428;2023-04-15T13:22:17;15.90;74.90
46037;DHT22;31769;49.304;8.428;2023-04-15T13:25:18;15.50;76.30
46037;DHT22;31769;49.304;8.428;2023-04-15T13:28:19;15.30;76.40
46037;DHT22;31769;49.304;8.428;2023-04-15T13:31:20;15.10;75.90
46037;DHT22;31769;49.304;8.428;2023-04-15T13:34:21;15.10;74.90
46037;DHT22;31769;49.304;8.428;2023-04-15T13:37:26;15.00;72.20
46037;DHT22;31769;49.304;8.428;2023-04-15T13:40:27;15.10;71.90
46037;DHT22;31769;49.304;8.428;2023-04-15T13:43:28;15.20;71.80
46037;DHT22;31769;49.304;8.428;2023-04-15T13:46:29;15.30;71.80
46037;DHT22;31769;49.304;8.428;2023-04-15T13:49:30;15.40;71.00
46037;DHT22;31769;49.304;8.428;2023-04-15T13:52:30;15.40;71.00
46037;DHT22;31769;49.304;8.428;2023-04-15T13:55:31;15.30;71.20
46037;DHT22;31769;49.304;8.428;2023-04-15T13:58:35;15.40;71.00
46037;DHT22;31769;49.304;8.428;2023-04-15T14:01:36;15.40;69.50
46037;DHT22;31769;49.304;8.428;2023-04-15T14:04:37;15.30;70.10
46037;DHT22;31769;49.304;8.428;2023-04-15T14:07:38;15.30;70.30
46037;DHT22;31769;49.304;8.428;2023-04-15T14:10:39;15.30;70.40
46037;DHT22;31769;49.304;8.428;2023-04-15T14:13:41;15.40;71.30
46037;DHT22;31769;49.304;8.428;2023-04-15T14:16:42;15.40;72.30
46037;DHT22;31769;49.304;8.428;2023-04-15T14:19:42;15.30;73.20
46037;DHT22;31769;49.304;8.428;2023-04-15T14:22:43;15.30;74.10
46037;DHT22;31769;49.304;8.428;2023-04-15T14:25:44;15.20;74.70
46037;DHT22;31769;49.304;8.428;2023-04-15T14:28:45;15.40;75.10
46037;DHT22;31769;49.304;8.428;2023-04-15T14:31:47;15.50;74.90
46037;DHT22;31769;49.304;8.428;2023-04-15T14:34:49;15.60;75.20
46037;DHT22;31769;49.304;8.428;2023-04-15T14:37:50;15.90;74.80
46037;DHT22;31769;49.304;8.428;2023-04-15T14:40:51;16.10;74.50
46037;DHT22;31769;49.304;8.428;2023-04-15T14:43:52;16.40;74.30
46037;DHT22;31769;49.304;8.428;2023-04-15T14:46:52;16.80;73.20
46037;DHT22;31769;49.304;8.428;2023-04-15T14:49:54;16.80;73.40
46037;DHT22;31769;49.304;8.428;2023-04-15T14:52:55;16.30;74.50
46037;DHT22;31769;49.304;8.428;2023-04-15T14:55:56;16.00;79.20
46037;DHT22;31769;49.304;8.428;2023-04-15T14:58:56;15.80;80.90
46037;DHT22;31769;49.304;8.428;2023-04-15T15:01:57;15.80;82.10
46037;DHT22;31769;49.304;8.428;2023-04-15T15:05:01;15.90;83.40
46037;DHT22;31769;49.304;8.428;2023-04-15T15:08:01;16.00;85.20
46037;DHT22;31769;49.304;8.428;2023-04-15T15:11:02;16.10;86.70
46037;DHT22;31769;49.304;8.428;2023-04-15T15:14:03;16.00;90.50
46037;DHT22;31769;49.304;8.428;2023-04-15T15:17:04;15.80;92.10
46037;DHT22;31769;49.304;8.428;2023-04-15T15:20:05;15.70;93.50
46037;DHT22;31769;49.304;8.428;2023-04-15T15:23:06;15.40;95.40
46037;DHT22;31769;49.304;8.428;2023-04-15T15:26:06;15.10;98.30
46037;DHT22;31769;49.304;8.428;2023-04-15T15:29:07;14.90;99.90
46037;DHT22;31769;49.304;8.428;2023-04-15T15:32:08;14.80;99.90
46037;DHT22;31769;49.304;8.428;2023-04-15T15:35:09;14.40;99.90
46037;DHT22;31769;49.304;8.428;2023-04-15T15:38:11;14.10;99.90
46037;DHT22;31769;49.304;8.428;2023-04-15T15:41:12;13.90;99.90
46037;DHT22;31769;49.304;8.428;2023-04-15T15:44:15;13.50;99.90
46037;DHT22;31769;49.304;8.428;2023-04-15T15:47:15;13.30;99.90
46037;DHT22;31769;49.304;8.428;2023-04-15T15:50:16;13.30;99.90
46037;DHT22;31769;49.304;8.428;2023-04-15T15:53:17;13.40;99.90
46037;DHT22;31769;49.304;8.428;2023-04-15T15:56:20;13.40;99.90
46037;DHT22;31769;49.304;8.428;2023-04-15T15:59:21;13.40;99.90
46037;DHT22;31769;49.304;8.428;2023-04-15T16:02:21;13.20;99.90
46037;DHT22;31769;49.304;8.428;2023-04-15T16:05:22;13.20;99.90
46037;DHT22;31769;49.304;8.428;2023-04-15T16:08:23;13.10;99.90
46037;DHT22;31769;49.304;8.428;2023-04-15T16:11:24;13.00;99.90
46037;DHT22;31769;49.304;8.428;2023-04-15T16:14:25;12.90;99.90
46037;DHT22;31769;49.304;8.428;2023-04-15T16:17:25;12.60;99.90
46037;DHT22;31769;49.304;8.428;2023-04-15T16:20:26;12.50;99.90
46037;DHT22;31769;49.304;8.428;2023-04-15T16:23:30;12.40;99.90
46037;DHT22;31769;49.304;8.428;2023-04-15T16:26:31;12.30;99.90
46037;DHT22;31769;49.304;8.428;2023-04-15T16:29:32;12.20;99.90
46037;DHT22;31769;49.304;8.428;2023-04-15T16:32:34;12.00;99.90
46037;DHT22;31769;49.304;8.428;2023-04-15T16:35:35;12.00;99.90
46037;DHT22;31769;49.304;8.428;2023-04-15T16:38:36;11.90;99.90
46037;DHT22;31769;49.304;8.428;2023-04-15T16:41:36;12.00;99.90
46037;DHT22;31769;49.304;8.428;2023-04-15T16:44:38;11.90;99.90
46037;DHT22;31769;49.304;8.428;2023-04-15T16:47:38;12.00;99.90
46037;DHT22;31769;49.304;8.428;2023-04-15T16:50:39;11.90;99.90
46037;DHT22;31769;49.304;8.428;2023-04-15T16:53:40;11.90;99.90
46037;DHT22;31769;49.304;8.428;2023-04-15T16:56:41;11.80;99.90
46037;DHT22;31769;49.304;8.428;2023-04-15T16:59:41;11.80;99.90
46037;DHT22;31769;49.304;8.428;2023-04-15T17:02:42;11.80;99.90
46037;DHT22;31769;49.304;8.428;2023-04-15T17:05:43;11.80;99.90
46037;DHT22;31769;49.304;8.428;2023-04-15T17:08:44;11.70;99.90
46037;DHT22;31769;49.304;8.428;2023-04-15T17:11:44;11.60;99.90
46037;DHT22;31769;49.304;8.428;2023-04-15T17:14:45;11.60;99.90
46037;DHT22;31769;49.304;8.428;2023-04-15T17:17:46;11.50;99.90
46037;DHT22;31769;49.304;8.428;2023-04-15T17:20:47;11.50;99.90
46037;DHT22;31769;49.304;8.428;2023-04-15T17:23:48;11.30;99.90
46037;DHT22;31769;49.304;8.428;2023-04-15T17:26:49;11.10;99.90
46037;DHT22;31769;49.304;8.428;2023-04-15T17:29:50;11.00;99.90
46037;DHT22;31769;49.304;8.428;2023-04-15T17:32:51;11.00;99.90
46037;DHT22;31769;49.304;8.428;2023-04-15T17:35:52;10.90;99.90
46037;DHT22;31769;49.304;8.428;2023-04-15T17:38:54;11.00;99.90
46037;DHT22;31769;49.304;8.428;2023-04-15T17:41:56;10.90;99.90
46037;DHT22;31769;49.304;8.428;2023-04-15T17:44:57;11.00;99.90
46037;DHT22;31769;49.304;8.428;2023-04-15T17:47:57;10.90;99.90
46037;DHT22;31769;49.304;8.428;2023-04-15T17:51:01;10.80;99.90
46037;DHT22;31769;49.304;8.428;2023-04-15T17:54:03;10.80;99.90
46037;DHT22;31769;49.304;8.428;2023-04-15T17:57:03;10.70;99.90
46037;DHT22;31769;49.304;8.428;2023-04-15T18:00:05;10.90;99.90
46037;DHT22;31769;49.304;8.428;2023-04-15T18:03:13;10.60;99.90
46037;DHT22;31769;49.304;8.428;2023-04-15T18:06:13;10.50;99.90
46037;DHT22;31769;49.304;8.428;2023-04-15T18:09:16;10.50;99.90
46037;DHT22;31769;49.304;8.428;2023-04-15T18:12:16;10.40;99.90
46037;DHT22;31769;49.304;8.428;2023-04-15T18:15:18;10.30;99.90
46037;DHT22;31769;49.304;8.428;2023-04-15T18:18:18;10.30;99.90
46037;DHT22;31769;49.304;8.428;2023-04-15T18:21:19;10.30;99.90
46037;DHT22;31769;49.304;8.428;2023-04-15T18:24:21;10.20;99.90
46037;DHT22;31769;49.304;8.428;2023-04-15T18:27:22;10.20;99.90
46037;DHT22;31769;49.304;8.428;2023-04-15T18:30:22;10.20;99.90
46037;DHT22;31769;49.304;8.428;2023-04-15T18:33:23;10.20;99.90
46037;DHT22;31769;49.304;8.428;2023-04-15T18:36:25;10.10;99.90
46037;DHT22;31769;49.304;8.428;2023-04-15T18:39:26;10.10;99.90
46037;DHT22;31769;49.304;8.428;2023-04-15T18:42:27;10.10;99.90
46037;DHT22;31769;49.304;8.428;2023-04-15T18:45:29;10.10;99.90
46037;DHT22;31769;49.304;8.428;2023-04-15T18:48:30;10.10;99.90
46037;DHT22;31769;49.304;8.428;2023-04-15T18:51:31;10.30;99.90
46037;DHT22;31769;49.304;8.428;2023-04-15T18:54:32;10.00;99.90
46037;DHT22;31769;49.304;8.428;2023-04-15T18:57:33;10.20;99.90
46037;DHT22;31769;49.304;8.428;2023-04-15T19:00:34;10.00;99.90
46037;DHT22;31769;49.304;8.428;2023-04-15T19:03:38;10.00;99.90
46037;DHT22;31769;49.304;8.428;2023-04-15T19:06:39;10.00;99.90
46037;DHT22;31769;49.304;8.428;2023-04-15T19:09:40;10.00;99.90
46037;DHT22;31769;49.304;8.428;2023-04-15T19:12:41;9.90;99.90
46037;DHT22;31769;49.304;8.428;2023-04-15T19:15:42;10.50;99.90
46037;DHT22;31769;49.304;8.428;2023-04-15T19:18:43;9.90;99.90